Time;durP1;ratioP1;P1;durP2;ratioP2;P2;SDS_P1;SDS_P2;PMS_P1;PMS_P2;Temp;Humidity;BMP_temperature;BMP_pressure;BME280_temperature;BME280_humidity;BME280_pressure;Samples;Min_cycle;Max_cycle;Signal;HPM_P1;HPM_P2
2022/06/20 00:02:19;;;;;;;7.88;4.22;;;29.10;53.10;;;;;;10053673;28;20025;-67
2022/06/20 00:07:12;;;;;;;7.28;2.90;;;29.40;53.10;;;;;;10052723;28;20418;-67
2022/06/20 00:12:03;;;;;;;7.47;3.47;;;29.40;52.70;;;;;;10053911;28;20049;-69
2022/06/20 00:16:54;;;;;;;9.65;4.63;;;29.30;52.70;;;;;;10051574;28;20025;-67
2022/06/20 00:21:45;;;;;;;7.68;3.78;;;29.40;52.60;;;;;;10052813;28;20068;-68
2022/06/20 00:26:36;;;;;;;4.38;3.28;;;29.40;52.50;;;;;;10052743;28;20028;-68
2022/06/20 00:31:27;;;;;;;11.60;4.55;;;29.10;53.00;;;;;;10052823;28;20129;-67
2022/06/20 00:36:18;;;;;;;7.40;4.00;;;29.00;53.80;;;;;;10034983;28;20456;-68
2022/06/20 00:41:23;;;;;;;10.27;3.80;;;29.00;53.10;;;;;;10052845;28;20116;-68
2022/06/20 00:46:40;;;;;;;6.72;3.63;;;28.90;53.60;;;;;;10052182;28;20021;-67
2022/06/20 00:51:31;;;;;;;9.25;3.88;;;28.90;54.10;;;;;;10042293;28;20057;-67
2022/06/20 00:56:29;;;;;;;9.32;3.40;;;28.80;53.80;;;;;;10052035;28;20025;-65
2022/06/20 01:01:28;;;;;;;12.57;5.18;;;28.80;53.90;;;;;;10050788;28;20022;-67
2022/06/20 01:06:26;;;;;;;7.75;3.53;;;28.50;54.30;;;;;;10053849;28;20399;-67
2022/06/20 01:11:22;;;;;;;6.05;3.50;;;28.60;54.30;;;;;;10048656;28;20037;-66
2022/06/20 01:16:12;;;;;;;10.60;4.10;;;28.70;54.20;;;;;;10051179;28;20060;-66
2022/06/20 01:21:09;;;;;;;8.07;3.83;;;28.90;54.20;;;;;;10051975;28;20539;-67
2022/06/20 01:26:08;;;;;;;13.10;7.00;;;28.70;54.60;;;;;;10033234;28;20024;-66
2022/06/20 01:31:00;;;;;;;8.05;3.60;;;28.60;54.90;;;;;;10051008;28;20416;-65
2022/06/20 01:46:13;;;;;;;4.88;3.50;;;28.90;54.50;;;;;;10045787;28;20148;-67
2022/06/20 01:51:08;;;;;;;8.32;3.50;;;28.80;54.70;;;;;;10051093;28;20034;-67
2022/06/20 01:56:02;;;;;;;7.00;4.03;;;28.70;55.70;;;;;;10051294;28;20021;-67
2022/06/20 02:00:52;;;;;;;8.02;3.70;;;28.60;55.00;;;;;;10051495;28;20029;-63
2022/06/20 02:05:47;;;;;;;6.75;3.67;;;28.60;55.30;;;;;;10050374;28;20040;-67
2022/06/20 02:10:46;;;;;;;8.20;3.80;;;28.50;55.50;;;;;;10051192;28;20021;-67
2022/06/20 02:15:38;;;;;;;8.98;4.25;;;28.50;55.70;;;;;;10056547;28;20025;-63
2022/06/20 02:20:33;;;;;;;7.88;3.85;;;28.70;55.30;;;;;;10046143;28;20022;-65
2022/06/20 02:25:30;;;;;;;8.05;4.22;;;28.70;55.50;;;;;;10056969;28;20579;-63
2022/06/20 02:30:21;;;;;;;8.30;4.32;;;28.50;55.70;;;;;;10057021;28;20084;-64
2022/06/20 02:35:16;;;;;;;6.72;4.15;;;28.60;55.60;;;;;;10056613;28;20097;-62
2022/06/20 02:40:11;;;;;;;9.65;4.25;;;28.50;55.90;;;;;;10056781;28;20087;-65
2022/06/20 02:45:06;;;;;;;8.73;4.05;;;28.50;56.10;;;;;;10056391;28;20033;-66
2022/06/20 02:49:59;;;;;;;7.45;4.00;;;28.50;56.30;;;;;;10056364;28;20554;-66
2022/06/20 02:54:52;;;;;;;8.90;4.65;;;28.40;56.30;;;;;;10055983;28;20033;-67
2022/06/20 02:59:51;;;;;;;6.50;4.18;;;28.10;56.70;;;;;;10057385;28;20039;-65
2022/06/20 03:04:45;;;;;;;9.07;4.57;;;28.10;57.10;;;;;;10055504;28;20029;-65
2022/06/20 03:09:39;;;;;;;7.07;4.20;;;28.10;57.20;;;;;;10055864;28;20498;-67
2022/06/20 03:14:37;;;;;;;6.30;3.88;;;28.10;57.10;;;;;;10055581;28;20094;-67
2022/06/20 03:19:32;;;;;;;10.90;4.55;;;28.10;57.40;;;;;;10056107;28;20021;-68
2022/06/20 03:24:24;;;;;;;11.18;5.97;;;27.90;57.70;;;;;;10055099;28;20492;-73
2022/06/20 03:29:17;;;;;;;7.30;4.95;;;27.90;58.10;;;;;;10055810;28;20052;-66
2022/06/20 03:34:09;;;;;;;9.13;5.03;;;28.00;58.00;;;;;;10054480;28;20041;-66
2022/06/20 03:39:01;;;;;;;11.45;4.43;;;28.10;58.20;;;;;;10055875;28;20033;-66
2022/06/20 03:44:03;;;;;;;9.13;5.45;;;27.70;58.90;;;;;;10055374;28;20048;-66
2022/06/20 03:49:15;;;;;;;9.57;5.30;;;27.90;59.50;;;;;;10055647;28;20030;-68
2022/06/20 03:54:32;;;;;;;10.63;5.28;;;27.70;60.10;;;;;;10054382;28;20060;-68
2022/06/20 03:59:39;;;;;;;6.90;4.53;;;27.60;60.00;;;;;;10052999;28;20033;-67
2022/06/20 04:04:42;;;;;;;7.80;3.95;;;27.70;59.70;;;;;;10053311;28;20017;-67
2022/06/20 04:15:07;;;;;;;10.55;4.82;;;27.60;60.80;;;;;;10052823;28;20075;-67
2022/06/20 04:20:02;;;;;;;13.75;4.50;;;27.50;59.90;;;;;;10053894;28;20091;-66
2022/06/20 04:25:21;;;;;;;10.73;3.80;;;27.40;60.30;;;;;;10053048;28;20399;-65
2022/06/20 04:30:35;;;;;;;10.07;4.07;;;27.50;60.20;;;;;;10053255;28;20670;-66
2022/06/20 04:35:46;;;;;;;7.75;4.30;;;27.60;59.90;;;;;;10052200;28;20036;-66
2022/06/20 04:40:43;;;;;;;10.70;4.38;;;27.50;60.30;;;;;;10048673;28;20492;-65
2022/06/20 04:45:44;;;;;;;9.15;5.93;;;27.60;60.20;;;;;;10052214;28;20059;-67
2022/06/20 04:50:35;;;;;;;10.40;5.82;;;27.60;60.20;;;;;;10052215;28;20030;-67
2022/06/20 04:55:28;;;;;;;8.35;4.22;;;27.80;60.00;;;;;;10051927;28;20164;-65
2022/06/20 05:00:45;;;;;;;7.57;4.80;;;27.70;60.90;;;;;;10051039;28;20444;-67
2022/06/20 05:05:40;;;;;;;11.07;4.32;;;27.60;60.30;;;;;;10049213;28;20037;-65
2022/06/20 05:10:35;;;;;;;;;;;27.40;60.80;;;;;;10033459;28;20048;-66
2022/06/20 05:15:36;;;;;;;5.05;3.63;;;27.10;61.20;;;;;;10051390;28;19994;-67
2022/06/20 05:20:34;;;;;;;10.40;4.78;;;27.10;61.20;;;;;;10052732;28;20025;-64
2022/06/20 05:25:26;;;;;;;11.65;4.10;;;27.00;61.40;;;;;;10052481;28;20022;-66
2022/06/20 05:30:22;;;;;;;6.72;4.75;;;27.00;61.70;;;;;;10052586;28;20050;-68
2022/06/20 05:35:19;;;;;;;9.25;4.13;;;26.70;62.20;;;;;;10051582;28;20065;-66
2022/06/20 05:40:18;;;;;;;6.07;4.13;;;26.60;63.00;;;;;;10051405;28;20022;-65
2022/06/20 05:45:15;;;;;;;12.02;4.18;;;26.40;62.80;;;;;;10051905;28;20671;-65
2022/06/20 05:50:14;;;;;;;7.80;4.28;;;26.40;63.70;;;;;;10055566;28;20521;-66
2022/06/20 05:55:17;;;;;;;6.32;4.28;;;26.80;63.10;;;;;;10053623;28;20033;-66
2022/06/20 06:00:20;;;;;;;10.65;4.95;;;26.70;63.20;;;;;;10059239;28;20060;-64
2022/06/20 06:05:19;;;;;;;10.63;4.60;;;26.50;64.10;;;;;;10057006;28;20606;-64
2022/06/20 06:10:51;;;;;;;10.18;3.78;;;26.50;64.40;;;;;;10040046;28;20064;-64
2022/06/20 06:21:01;;;;;;;10.80;4.93;;;27.00;63.20;;;;;;10057949;28;20412;-67
2022/06/20 06:25:52;;;;;;;7.40;4.22;;;27.20;63.00;;;;;;10057732;28;20021;-67
2022/06/20 06:31:09;;;;;;;9.80;5.80;;;26.90;62.90;;;;;;10059356;28;20052;-65
2022/06/20 06:36:26;;;;;;;14.23;5.68;;;26.70;63.10;;;;;;10052830;28;20068;-64
2022/06/20 06:41:33;;;;;;;6.90;4.57;;;26.60;63.60;;;;;;10056133;28;20022;-63
2022/06/20 06:46:37;;;;;;;9.90;4.32;;;26.70;63.30;;;;;;10055544;28;20029;-63
2022/06/20 06:51:54;;;;;;;8.13;4.15;;;26.60;63.10;;;;;;10057544;28;20099;-64
2022/06/20 06:57:02;;;;;;;11.88;4.60;;;26.80;62.90;;;;;;10027985;28;20104;-65
2022/06/20 07:01:59;;;;;;;5.65;3.70;;;26.60;63.00;;;;;;10055515;28;20495;-66
2022/06/20 07:07:23;;;;;;;8.40;3.53;;;26.60;63.10;;;;;;10055744;28;20017;-64
2022/06/20 07:12:37;;;;;;;7.18;3.58;;;26.70;62.20;;;;;;10035651;28;20045;-65
2022/06/20 07:17:31;;;;;;;;;;;26.70;62.50;;;;;;10055744;28;20025;-67
2022/06/20 07:22:23;;;;;;;8.70;4.28;;;26.90;61.70;;;;;;10053369;28;20394;-63
2022/06/20 07:27:36;;;;;;;12.60;5.20;;;27.30;61.40;;;;;;10057509;28;20013;-63
2022/06/20 07:32:39;;;;;;;9.68;4.10;;;27.30;61.30;;;;;;10053097;28;20041;-61
2022/06/20 07:37:43;;;;;;;4.70;3.35;;;27.40;61.30;;;;;;10055485;28;20545;-62
2022/06/20 07:42:43;;;;;;;7.15;4.03;;;27.70;60.80;;;;;;10053133;28;20087;-62
2022/06/20 07:47:49;;;;;;;6.43;4.57;;;27.60;60.40;;;;;;10057095;28;20052;-64
2022/06/20 07:52:45;;;;;;;9.88;3.63;;;27.60;60.30;;;;;;10053697;28;20071;-63
2022/06/20 07:57:43;;;;;;;6.82;3.80;;;27.70;59.90;;;;;;10053941;28;20443;-63
2022/06/20 08:02:59;;;;;;;5.05;3.47;;;27.50;60.20;;;;;;10049818;28;20025;-63
2022/06/20 08:08:09;;;;;;;6.57;3.55;;;27.80;59.80;;;;;;10053709;28;20029;-65
2022/06/20 08:13:23;;;;;;;8.68;3.25;;;27.60;59.90;;;;;;10050613;28;20503;-65
2022/06/20 08:18:14;;;;;;;9.43;4.50;;;27.30;60.20;;;;;;10036227;28;20032;-65
2022/06/20 08:23:12;;;;;;;9.85;4.38;;;27.20;60.60;;;;;;10053059;28;20017;-65
2022/06/20 08:28:11;;;;;;;10.02;3.70;;;27.20;60.40;;;;;;10053162;28;20036;-63
2022/06/20 08:33:14;;;;;;;8.73;4.05;;;27.30;60.30;;;;;;10034890;28;20042;-64
2022/06/20 08:38:32;;;;;;;11.20;3.97;;;27.30;60.20;;;;;;10052813;28;20045;-63
2022/06/20 08:43:53;;;;;;;12.10;4.55;;;27.20;60.80;;;;;;10053144;28;20318;-63
2022/06/20 08:48:56;;;;;;;5.32;4.18;;;27.20;61.10;;;;;;10046891;28;20398;-64
2022/06/20 08:54:25;;;;;;;9.00;4.03;;;27.40;61.10;;;;;;10052910;28;20083;-64
2022/06/20 08:59:15;;;;;;;6.07;3.97;;;27.50;61.20;;;;;;10014972;28;20033;-63
2022/06/20 09:04:27;;;;;;;7.68;3.72;;;27.50;61.50;;;;;;10051741;28;20545;-63
2022/06/20 09:09:29;;;;;;;8.68;3.90;;;27.60;62.00;;;;;;10051911;28;20075;-64
2022/06/20 09:14:29;;;;;;;9.95;4.72;;;27.80;61.80;;;;;;10050900;28;20033;-65
2022/06/20 09:19:44;;;;;;;9.55;4.32;;;28.20;61.50;;;;;;10051438;28;20033;-62
2022/06/20 09:24:56;;;;;;;6.95;3.58;;;28.70;61.40;;;;;;10053904;28;20115;-66
2022/06/20 09:29:49;;;;;;;7.88;3.70;;;28.70;61.10;;;;;;10059212;28;20128;-66
2022/06/20 09:35:05;;;;;;;6.85;3.88;;;28.80;61.00;;;;;;10059467;28;20046;-67
2022/06/20 09:40:16;;;;;;;5.45;4.22;;;28.90;60.80;;;;;;10036740;28;20068;-64
2022/06/20 09:45:17;;;;;;;5.88;2.90;;;29.20;60.20;;;;;;10059153;28;20018;-65
2022/06/20 09:50:36;;;;;;;9.25;3.88;;;29.20;59.80;;;;;;10059149;28;20057;-66
2022/06/20 09:55:30;;;;;;;4.70;2.75;;;29.20;59.50;;;;;;10050109;28;20559;-66
2022/06/20 10:00:36;;;;;;;5.50;3.83;;;29.20;59.20;;;;;;10059246;28;20256;-66
2022/06/20 10:06:20;;;;;;;7.80;3.10;;;28.70;59.10;;;;;;10059369;28;20026;-66
2022/06/20 10:11:44;;;;;;;6.57;3.95;;;28.70;58.80;;;;;;10032039;28;20549;-65
2022/06/20 10:16:54;;;;;;;8.90;5.15;;;28.60;58.80;;;;;;10057373;28;20120;-67
2022/06/20 10:22:01;;;;;;;6.68;3.85;;;28.70;58.70;;;;;;10053277;28;20033;-66
2022/06/20 10:27:12;;;;;;;6.25;3.25;;;28.90;58.50;;;;;;10058136;28;20052;-66
2022/06/20 10:32:46;;;;;;;6.30;3.92;;;29.10;58.60;;;;;;10056241;28;20150;-65
2022/06/20 10:37:58;;;;;;;7.47;4.35;;;28.90;59.00;;;;;;10057397;28;20793;-68
2022/06/20 10:43:06;;;;;;;7.03;3.65;;;28.90;59.10;;;;;;10049540;28;20033;-72
2022/06/20 10:48:00;;;;;;;8.95;4.05;;;29.10;59.20;;;;;;10054118;28;20526;-66
2022/06/20 10:53:29;;;;;;;5.15;3.22;;;29.00;59.80;;;;;;10055666;28;20037;-66
2022/06/20 10:58:41;;;;;;;5.10;3.00;;;29.10;60.00;;;;;;10053467;28;20538;-66
2022/06/20 11:03:44;;;;;;;8.40;3.95;;;29.10;60.10;;;;;;10053273;28;20025;-66
2022/06/20 11:09:04;;;;;;;4.28;2.97;;;29.20;59.90;;;;;;10048898;28;20412;-63
2022/06/20 11:13:55;;;;;;;9.07;4.30;;;29.20;60.90;;;;;;10052234;28;20037;-68
2022/06/20 11:18:58;;;;;;;6.97;3.72;;;29.00;60.90;;;;;;10057613;28;20238;-66
2022/06/20 11:24:15;;;;;;;4.77;3.27;;;28.80;61.30;;;;;;10056331;28;20030;-66
2022/06/20 11:29:33;;;;;;;4.90;2.90;;;28.80;60.90;;;;;;10057315;28;20447;-66
2022/06/20 11:35:01;;;;;;;10.77;3.40;;;28.60;61.20;;;;;;10046658;28;20033;-66
2022/06/20 11:40:10;;;;;;;5.60;3.10;;;28.40;61.90;;;;;;10052041;28;20112;-68
2022/06/20 11:45:08;;;;;;;8.82;4.65;;;28.50;61.90;;;;;;10054913;28;20017;-66
2022/06/20 11:50:08;;;;;;;4.10;3.47;;;28.40;61.70;;;;;;10035518;28;20025;-66
2022/06/20 11:55:11;;;;;;;5.68;2.78;;;28.40;61.60;;;;;;10052356;28;20037;-67
2022/06/20 12:00:14;;;;;;;6.88;3.25;;;28.50;61.50;;;;;;10053387;28;20173;-66
2022/06/20 12:05:17;;;;;;;9.85;3.33;;;28.30;61.50;;;;;;10053221;28;20036;-67
2022/06/20 12:10:21;;;;;;;5.13;2.60;;;28.10;62.30;;;;;;10043954;28;20029;-66
2022/06/20 12:15:30;;;;;;;4.47;2.95;;;28.30;61.80;;;;;;10042768;28;20102;-63
2022/06/20 12:26:05;;;;;;;6.15;3.55;;;28.60;61.30;;;;;;10052801;28;20438;-66
2022/06/20 12:30:59;;;;;;;5.45;3.08;;;28.70;61.20;;;;;;10049952;28;20038;-65
2022/06/20 12:35:55;;;;;;;7.60;3.20;;;29.00;61.00;;;;;;10051101;28;20026;-66
2022/06/20 12:40:55;;;;;;;3.60;2.40;;;29.10;60.30;;;;;;10053273;28;20029;-65
2022/06/20 12:46:16;;;;;;;3.35;2.58;;;29.40;59.40;;;;;;10052317;28;20060;-65
2022/06/20 12:51:32;;;;;;;5.82;2.53;;;29.60;58.80;;;;;;10053274;28;20052;-63
2022/06/20 12:56:36;;;;;;;4.82;2.47;;;29.70;58.10;;;;;;10050055;28;20184;-66
2022/06/20 13:02:05;;;;;;;;;;;29.70;58.00;;;;;;10035348;28;20033;-65
2022/06/20 13:07:04;;;;;;;4.68;2.55;;;29.80;57.30;;;;;;9926129;28;19970;-64
2022/06/20 13:12:20;;;;;;;4.93;2.90;;;29.50;57.90;;;;;;10022095;28;20049;-67
2022/06/20 13:17:36;;;;;;;4.07;2.25;;;29.40;58.20;;;;;;10024065;28;20396;-66
2022/06/20 13:22:36;;;;;;;4.13;3.28;;;29.30;58.40;;;;;;10049940;28;20044;-66
2022/06/20 13:27:48;;;;;;;5.32;2.78;;;29.30;58.60;;;;;;10051358;28;20494;-63
2022/06/20 13:32:46;;;;;;;5.18;2.75;;;29.30;58.60;;;;;;10041173;28;20635;-64
2022/06/20 13:37:51;;;;;;;6.13;3.47;;;29.50;58.80;;;;;;10051841;28;20060;-65
2022/06/20 13:43:18;;;;;;;3.60;2.63;;;30.20;58.50;;;;;;10050993;28;20029;-66
2022/06/20 13:48:24;;;;;;;6.43;2.75;;;31.00;57.70;;;;;;10021526;28;20091;-66
2022/06/20 13:53:27;;;;;;;4.30;2.80;;;32.90;55.30;;;;;;10050405;28;20037;-66
2022/06/20 13:58:33;;;;;;;7.05;4.60;;;31.60;56.30;;;;;;10050215;28;20018;-65
2022/06/20 14:03:29;;;;;;;5.32;3.20;;;33.50;54.90;;;;;;10046935;28;20061;-67
2022/06/20 14:08:28;;;;;;;5.60;3.08;;;32.90;54.70;;;;;;10050091;28;20046;-66
2022/06/20 14:13:33;;;;;;;7.18;2.97;;;32.30;56.00;;;;;;10056561;28;20554;-64
2022/06/20 14:18:28;;;;;;;4.65;3.10;;;32.80;54.10;;;;;;10057141;28;20021;-64
2022/06/20 14:23:20;;;;;;;4.05;2.97;;;33.50;54.40;;;;;;10055411;28;20487;-65
2022/06/20 14:28:33;;;;;;;1.85;1.75;;;35.20;51.70;;;;;;10058573;28;20051;-66
2022/06/20 14:33:32;;;;;;;6.53;2.33;;;35.70;49.00;;;;;;10057464;28;20029;-66
2022/06/20 14:38:37;;;;;;;4.07;2.38;;;35.80;49.90;;;;;;10056996;28;20048;-66
2022/06/20 14:43:42;;;;;;;5.63;2.08;;;36.10;49.40;;;;;;10056077;28;20499;-71
2022/06/20 14:48:53;;;;;;;9.73;2.50;;;36.60;48.50;;;;;;10055015;28;20181;-67
2022/06/20 14:53:54;;;;;;;4.47;2.28;;;36.60;47.80;;;;;;10054565;28;20046;-68
2022/06/20 14:59:10;;;;;;;3.05;2.33;;;36.70;47.50;;;;;;10055837;28;20343;-67
2022/06/20 15:04:10;;;;;;;3.42;2.10;;;36.60;47.90;;;;;;10021089;28;20500;-64
2022/06/20 15:09:13;;;;;;;4.07;2.22;;;35.20;48.10;;;;;;10055837;28;20609;-67
2022/06/20 15:14:34;;;;;;;5.97;2.92;;;35.20;48.00;;;;;;10054858;28;20033;-65
2022/06/20 15:19:46;;;;;;;2.50;2.30;;;35.90;46.20;;;;;;10055840;28;20044;-64
2022/06/20 15:24:50;;;;;;;2.50;1.95;;;35.70;46.40;;;;;;10048007;28;20594;-66
2022/06/20 15:29:53;;;;;;;4.82;2.13;;;35.50;47.00;;;;;;10046451;28;20045;-66
2022/06/20 15:34:45;;;;;;;4.88;2.63;;;35.30;47.50;;;;;;10055251;28;20045;-65
2022/06/20 15:39:50;;;;;;;3.50;1.75;;;35.50;48.80;;;;;;10036808;28;20057;-66
2022/06/20 15:44:48;;;;;;;5.38;2.13;;;36.90;46.90;;;;;;10053613;28;20080;-65
2022/06/20 15:50:12;;;;;;;3.80;2.17;;;36.40;47.20;;;;;;10038347;28;20021;-64
2022/06/20 15:55:06;;;;;;;2.42;1.98;;;36.30;47.30;;;;;;10050155;28;20037;-66
2022/06/20 16:00:22;;;;;;;3.25;2.03;;;37.00;47.10;;;;;;10051686;28;20064;-67
2022/06/20 16:05:26;;;;;;;2.65;2.10;;;37.60;46.10;;;;;;10045982;28;20061;-66
2022/06/20 16:10:29;;;;;;;2.38;2.17;;;36.20;47.80;;;;;;10053057;28;20100;-66
2022/06/20 16:15:39;;;;;;;3.88;2.47;;;36.50;47.40;;;;;;10053938;28;20044;-66
2022/06/20 16:20:33;;;;;;;4.45;2.47;;;37.20;46.60;;;;;;10064234;28;20017;-72
2022/06/20 16:25:30;;;;;;;4.38;2.13;;;35.60;48.40;;;;;;10054135;28;20033;-66
2022/06/20 16:30:27;;;;;;;4.03;2.33;;;33.40;50.60;;;;;;10054394;28;20411;-67
2022/06/20 16:35:22;;;;;;;3.88;2.50;;;34.70;48.70;;;;;;10055126;28;20047;-69
2022/06/20 16:40:16;;;;;;;4.55;2.67;;;34.30;49.40;;;;;;10055970;28;20108;-69
2022/06/20 16:45:13;;;;;;;2.42;2.08;;;35.90;48.00;;;;;;10052358;28;20310;-72
2022/06/20 16:50:06;;;;;;;3.03;2.50;;;34.90;48.60;;;;;;10054022;28;20104;-71
2022/06/20 16:55:18;;;;;;;3.67;2.30;;;35.90;48.50;;;;;;10051088;28;20474;-68
2022/06/20 17:00:17;;;;;;;2.83;2.40;;;36.50;46.80;;;;;;10050071;28;20032;-68
2022/06/20 17:05:26;;;;;;;3.80;2.58;;;36.10;47.30;;;;;;10050136;28;20037;-66
2022/06/20 17:10:28;;;;;;;4.63;2.47;;;36.50;46.70;;;;;;10023862;28;20097;-67
2022/06/20 17:15:35;;;;;;;2.60;2.40;;;36.30;46.30;;;;;;10052577;28;20528;-66
2022/06/20 17:20:36;;;;;;;3.60;2.80;;;34.30;47.80;;;;;;10050626;28;20410;-70
2022/06/20 17:25:45;;;;;;;3.23;2.77;;;33.00;50.00;;;;;;10051556;28;20104;-68
2022/06/20 17:30:59;;;;;;;4.78;2.80;;;34.20;48.00;;;;;;10049838;28;20057;-67
2022/06/20 17:35:57;;;;;;;4.32;3.10;;;34.40;47.30;;;;;;10030344;28;20086;-65
2022/06/20 17:40:54;;;;;;;4.70;3.05;;;34.40;46.90;;;;;;10051894;28;20664;-64
2022/06/20 17:46:01;;;;;;;2.35;2.15;;;34.20;47.60;;;;;;10053909;28;20029;-66
2022/06/20 17:51:10;;;;;;;4.45;2.33;;;33.60;47.20;;;;;;10060100;28;20507;-64
2022/06/20 17:56:32;;;;;;;2.65;2.45;;;33.20;48.10;;;;;;10059441;28;20041;-68
2022/06/20 18:01:43;;;;;;;2.53;2.20;;;32.30;49.00;;;;;;10058503;28;20026;-65
2022/06/20 18:06:38;;;;;;;3.10;1.92;;;31.00;51.00;;;;;;10053439;28;20052;-63
2022/06/20 18:11:37;;;;;;;2.08;1.88;;;29.30;53.00;;;;;;10059026;28;20455;-64
2022/06/20 18:16:33;;;;;;;5.63;2.20;;;28.30;53.90;;;;;;10058606;28;20038;-65
2022/06/20 18:21:44;;;;;;;3.33;2.22;;;27.60;54.60;;;;;;10060276;28;20018;-63
2022/06/20 18:26:54;;;;;;;3.00;1.92;;;26.80;56.50;;;;;;10059828;28;20068;-64
2022/06/20 18:31:50;;;;;;;2.13;2.00;;;26.30;57.30;;;;;;10058727;28;20601;-65
2022/06/20 18:36:42;;;;;;;3.05;2.38;;;26.00;56.50;;;;;;10040455;28;20127;-65
2022/06/20 18:41:33;;;;;;;3.17;1.98;;;26.10;56.20;;;;;;10056837;28;20022;-65
2022/06/20 18:46:28;;;;;;;3.50;2.50;;;25.90;56.50;;;;;;10058064;28;20451;-64
2022/06/20 18:51:45;;;;;;;3.47;2.10;;;25.30;57.80;;;;;;10055745;28;20018;-65
2022/06/20 18:56:49;;;;;;;2.92;2.35;;;25.20;59.00;;;;;;10060053;28;20028;-65
2022/06/20 19:02:12;;;;;;;2.75;2.35;;;24.90;58.60;;;;;;10057588;28;20237;-67
2022/06/20 19:07:23;;;;;;;3.25;1.98;;;24.80;59.30;;;;;;10046210;28;20100;-65
2022/06/20 19:12:28;;;;;;;3.78;1.73;;;24.60;59.00;;;;;;10053881;28;20029;-66
2022/06/20 19:17:24;;;;;;;2.75;1.58;;;24.40;59.60;;;;;;10055427;28;20444;-66
2022/06/20 19:22:51;;;;;;;2.60;1.30;;;24.10;59.90;;;;;;10039920;28;20462;-66
2022/06/20 19:28:05;;;;;;;1.77;1.17;;;23.90;60.80;;;;;;10054642;28;20048;-71
2022/06/20 19:33:05;;;;;;;1.83;0.90;;;23.70;61.00;;;;;;10055365;28;20041;-66
2022/06/20 19:38:11;;;;;;;1.63;0.93;;;23.60;60.30;;;;;;10058969;28;20024;-68
2022/06/20 19:43:06;;;;;;;1.35;0.90;;;23.50;60.30;;;;;;10036793;28;20164;-65
2022/06/20 19:48:00;;;;;;;1.00;0.90;;;23.20;60.30;;;;;;10057554;28;20033;-66
2022/06/20 19:53:05;;;;;;;2.40;1.43;;;23.00;60.50;;;;;;10056616;28;20072;-67
2022/06/20 19:58:02;;;;;;;1.65;1.10;;;23.00;60.00;;;;;;10056910;28;20360;-68
2022/06/20 20:03:16;;;;;;;2.20;1.13;;;23.70;58.90;;;;;;10038434;28;20029;-70
2022/06/20 20:08:10;;;;;;;1.90;1.25;;;24.00;58.30;;;;;;10040423;28;20113;-68
2022/06/20 20:13:07;;;;;;;1.73;0.98;;;23.90;58.00;;;;;;10055465;28;20041;-66
2022/06/20 20:18:35;;;;;;;2.60;0.90;;;23.90;57.90;;;;;;10055965;28;20020;-71
2022/06/20 20:23:27;;;;;;;1.58;0.82;;;24.00;57.40;;;;;;10051319;28;20026;-72
2022/06/20 20:28:23;;;;;;;1.92;0.88;;;23.80;57.40;;;;;;10056578;28;20120;-70
2022/06/20 20:33:30;;;;;;;1.00;0.80;;;23.70;57.00;;;;;;10046184;28;20037;-69
2022/06/20 20:38:39;;;;;;;1.98;1.00;;;23.30;56.60;;;;;;10046316;28;20398;-69
2022/06/20 20:43:47;;;;;;;2.20;1.15;;;22.90;56.60;;;;;;10050032;28;20040;-66
2022/06/20 20:48:40;;;;;;;3.53;1.23;;;22.80;55.70;;;;;;10051001;28;20034;-67
2022/06/20 20:53:35;;;;;;;2.72;1.02;;;22.70;55.60;;;;;;10054007;28;20147;-64
2022/06/20 20:58:35;;;;;;;1.70;1.13;;;22.70;55.00;;;;;;10053362;28;20139;-62
2022/06/20 21:03:27;;;;;;;4.63;1.70;;;22.70;54.80;;;;;;10053775;28;20048;-62
2022/06/20 21:08:30;;;;;;;2.13;1.30;;;22.50;54.60;;;;;;10053569;28;20022;-63
2022/06/20 21:13:25;;;;;;;3.63;1.38;;;22.40;54.60;;;;;;10054508;28;20037;-70
2022/06/20 21:18:18;;;;;;;1.90;0.90;;;22.20;54.70;;;;;;10053471;28;20115;-65
2022/06/20 21:23:08;;;;;;;1.70;1.20;;;21.90;55.00;;;;;;10029086;28;20469;-67
2022/06/20 21:28:02;;;;;;;3.15;1.30;;;22.00;54.80;;;;;;10051616;28;20071;-68
2022/06/20 21:32:53;;;;;;;2.13;1.10;;;22.40;54.20;;;;;;10051764;28;20057;-65
2022/06/20 21:37:54;;;;;;;2.28;1.20;;;22.50;54.10;;;;;;10051387;28;20041;-64
2022/06/20 21:42:53;;;;;;;3.05;1.02;;;22.40;54.20;;;;;;10051980;28;20028;-67
2022/06/20 21:48:01;;;;;;;1.27;0.90;;;22.40;54.30;;;;;;10051860;28;20037;-69
2022/06/20 21:52:56;;;;;;;1.63;0.82;;;22.30;54.60;;;;;;10051927;28;20042;-64
2022/06/20 21:58:14;;;;;;;1.25;0.80;;;22.50;54.20;;;;;;10052436;28;20382;-69
2022/06/20 22:08:31;;;;;;;1.92;1.10;;;21.90;55.30;;;;;;10051584;28;20048;-68
2022/06/20 22:13:30;;;;;;;3.35;1.13;;;21.70;55.40;;;;;;10049765;28;20044;-70
2022/06/20 22:18:28;;;;;;;1.20;1.10;;;21.50;55.40;;;;;;10050020;28;20025;-67
2022/06/20 22:23:34;;;;;;;2.92;1.50;;;21.20;55.50;;;;;;10050791;28;20395;-65
2022/06/20 22:28:36;;;;;;;3.45;1.15;;;21.10;56.10;;;;;;10048220;28;20026;-66
2022/06/20 22:33:32;;;;;;;4.10;1.35;;;21.30;55.50;;;;;;10055400;28;20149;-66
2022/06/20 22:38:34;;;;;;;4.18;1.20;;;21.40;55.40;;;;;;10058595;28;20053;-64
2022/06/20 22:43:31;;;;;;;3.05;1.10;;;21.30;55.50;;;;;;10057699;28;20061;-65
2022/06/20 22:48:24;;;;;;;1.85;1.17;;;21.30;55.40;;;;;;10057238;28;20298;-63
2022/06/20 22:53:19;;;;;;;3.65;1.25;;;21.20;55.50;;;;;;10056586;28;20045;-64
2022/06/20 22:58:12;;;;;;;2.33;1.35;;;21.00;55.90;;;;;;10039561;28;20424;-64
2022/06/20 23:03:15;;;;;;;2.45;1.77;;;21.10;55.80;;;;;;10057248;28;20033;-63
2022/06/20 23:08:05;;;;;;;2.65;1.35;;;20.80;56.40;;;;;;10056568;28;20025;-64
2022/06/20 23:12:57;;;;;;;3.03;0.88;;;20.90;56.10;;;;;;10055733;28;20472;-62
2022/06/20 23:22:57;;;;;;;3.28;1.33;;;20.60;56.70;;;;;;10056667;28;20104;-64
2022/06/20 23:27:49;;;;;;;3.03;1.52;;;20.70;57.30;;;;;;10055782;28;20095;-63
2022/06/20 23:32:40;;;;;;;1.35;1.23;;;20.60;56.80;;;;;;10055754;28;20053;-62
2022/06/20 23:37:32;;;;;;;6.82;2.33;;;20.80;56.40;;;;;;10054347;28;20581;-63
2022/06/20 23:42:23;;;;;;;3.70;1.48;;;20.70;56.60;;;;;;10053891;28;20033;-62
2022/06/20 23:47:30;;;;;;;1.40;1.30;;;20.60;56.80;;;;;;10056795;28;20044;-62
2022/06/20 23:52:21;;;;;;;3.17;1.73;;;20.80;56.70;;;;;;10056004;28;20025;-62
2022/06/20 23:57:20;;;;;;;2.28;1.08;;;20.60;56.80;;;;;;10036589;28;20033;-62
